createdAt,value
2023-11-03T00:02:24.133Z,92022.59
2023-11-03T00:04:50.664Z,92025.72
2023-11-03T00:07:17.171Z,92023.34
2023-11-03T00:09:43.659Z,92026.09
2023-11-03T00:12:10.172Z,92023.69
2023-11-03T00:14:36.648Z,92016.38
2023-11-03T00:17:03.101Z,92023.47
2023-11-03T00:19:29.730Z,92020.84
2023-11-03T00:21:56.310Z,92024.63
2023-11-03T00:24:22.771Z,92018.34
2023-11-03T00:26:49.230Z,92019.16
2023-11-03T00:29:15.673Z,92028.41
2023-11-03T00:31:42.148Z,92027.97
2023-11-03T00:34:08.645Z,92029.16
2023-11-03T00:36:35.128Z,92033.78
2023-11-03T00:39:01.593Z,92044.31
2023-11-03T00:41:28.081Z,92039.31
2023-11-03T00:43:54.550Z,92042.16
2023-11-03T00:46:20.986Z,92051.22
2023-11-03T00:48:47.531Z,92041.69
2023-11-03T00:51:14.002Z,92043.75
2023-11-03T00:53:40.449Z,92050.47
2023-11-03T00:56:06.963Z,92058.59
2023-11-03T00:58:33.405Z,92052.53
2023-11-03T01:00:59.912Z,92051.53
2023-11-03T01:03:26.439Z,92059.16
2023-11-03T01:05:52.956Z,92059.16
2023-11-03T01:08:19.423Z,92049.44
2023-11-03T01:10:45.900Z,92053.78
2023-11-03T01:13:15.827Z,92059.38
2023-11-03T01:15:42.856Z,92065.84
2023-11-03T01:18:09.496Z,92063.81
2023-11-03T01:20:35.958Z,92069.44
2023-11-03T01:23:02.446Z,92061.53
2023-11-03T01:25:28.879Z,92059.72
2023-11-03T01:27:55.355Z,92073.00
2023-11-03T01:30:21.985Z,92071.31
2023-11-03T01:32:48.691Z,92070.88
2023-11-03T01:35:15.180Z,92069.94
2023-11-03T01:37:41.643Z,92077.09
2023-11-03T01:40:08.105Z,92077.09
2023-11-03T01:42:34.645Z,92074.47
2023-11-03T01:45:01.168Z,92076.09
2023-11-03T01:47:27.634Z,92078.47
2023-11-03T01:49:54.108Z,92077.66
2023-11-03T01:52:20.564Z,92078.47
2023-11-03T01:54:47.078Z,92078.72
2023-11-03T01:57:13.567Z,92071.47
2023-11-03T01:59:40.057Z,92078.34
2023-11-03T02:02:06.513Z,92086.22
2023-11-03T02:04:32.991Z,92083.97
2023-11-03T02:06:59.433Z,92083.97
2023-11-03T02:09:25.904Z,92089.44
2023-11-03T02:11:52.344Z,92088.44
2023-11-03T02:14:18.982Z,92087.03
2023-11-03T02:16:45.476Z,92091.28
2023-11-03T02:19:15.495Z,92092.09
2023-11-03T02:21:43.114Z,92087.16
2023-11-03T02:24:09.596Z,92093.81
2023-11-03T02:26:36.111Z,92087.75
2023-11-03T02:29:02.593Z,92086.97
2023-11-03T02:31:29.025Z,92091.41
2023-11-03T02:33:55.501Z,92089.00
2023-11-03T02:36:22.000Z,92096.31
2023-11-03T02:38:48.443Z,92103.41
2023-11-03T02:41:14.900Z,92103.63
2023-11-03T02:43:41.338Z,92107.72
2023-11-03T02:46:07.835Z,92095.88
2023-11-03T02:48:34.323Z,92094.72
2023-11-03T02:51:00.808Z,92096.19
2023-11-03T02:53:27.274Z,92096.63
2023-11-03T02:55:53.730Z,92100.31
2023-11-03T02:58:20.201Z,92103.56
2023-11-03T03:00:46.647Z,92108.25
2023-11-03T03:03:13.129Z,92103.66
2023-11-03T03:05:39.624Z,92099.63
2023-11-03T03:08:06.111Z,92104.38
2023-11-03T03:10:32.591Z,92099.69
2023-11-03T03:12:59.039Z,92108.19
2023-11-03T03:15:25.508Z,92109.19
2023-11-03T03:17:52.062Z,92117.69
2023-11-03T03:20:18.653Z,92113.00
2023-11-03T03:22:45.271Z,92108.31
2023-11-03T03:25:11.750Z,92113.78
2023-11-03T03:27:38.275Z,92110.81
2023-11-03T03:30:04.733Z,92097.28
2023-11-03T03:32:31.467Z,92102.19
2023-11-03T03:34:58.040Z,92093.69
2023-11-03T03:37:24.493Z,92099.06
2023-11-03T03:39:50.962Z,92108.16
2023-11-03T03:42:17.417Z,92099.69
2023-11-03T03:44:43.887Z,92091.03
2023-11-03T03:47:10.386Z,92090.63
2023-11-03T03:49:36.867Z,92088.66
2023-11-03T03:52:03.324Z,92087.66
2023-11-03T03:54:29.780Z,92083.56
2023-11-03T03:56:56.239Z,92087.00
2023-11-03T03:59:22.778Z,92087.00
2023-11-03T04:01:49.241Z,92077.94
2023-11-03T04:04:15.774Z,92087.06
2023-11-03T04:06:42.334Z,92083.03
2023-11-03T04:09:08.815Z,92070.94
2023-11-03T04:11:35.271Z,92070.94
2023-11-03T04:14:01.763Z,92072.34
2023-11-03T04:16:28.910Z,92060.91
2023-11-03T04:18:56.132Z,92064.19
2023-11-03T04:21:22.607Z,92056.75
2023-11-03T04:23:49.063Z,92055.72
2023-11-03T04:26:15.528Z,92050.47
2023-11-03T04:28:42.008Z,92046.25
2023-11-03T04:31:08.478Z,92045.06
2023-11-03T04:33:35.057Z,92045.50
2023-11-03T04:36:01.546Z,92043.72
2023-11-03T04:38:28.005Z,92037.91
2023-11-03T04:40:54.475Z,92056.72
2023-11-03T04:43:20.932Z,92060.34
2023-11-03T04:45:47.387Z,92073.91
2023-11-03T04:48:13.843Z,92089.88
2023-11-03T04:50:40.355Z,92096.94
2023-11-03T04:53:08.034Z,92097.38
2023-11-03T04:55:34.903Z,92097.38
2023-11-03T04:58:01.380Z,92092.13
2023-11-03T05:00:27.840Z,92093.09
2023-11-03T05:02:54.372Z,92086.59
2023-11-03T05:05:20.923Z,92085.19
2023-11-03T05:07:47.435Z,92088.16
2023-11-03T05:10:13.926Z,92088.75
2023-11-03T05:12:40.456Z,92083.28
2023-11-03T05:15:06.961Z,92084.88
2023-11-03T05:17:33.508Z,92089.72
2023-11-03T05:19:59.999Z,92091.31
2023-11-03T05:22:26.479Z,92101.81
2023-11-03T05:24:52.988Z,92101.59
2023-11-03T05:27:19.513Z,92106.84
2023-11-03T05:29:46.050Z,92105.84
2023-11-03T05:32:12.571Z,92110.50
2023-11-03T05:34:39.029Z,92105.25
2023-11-03T05:37:05.530Z,92091.31
2023-11-03T05:39:32.455Z,92094.97
2023-11-03T05:41:58.927Z,92090.34
2023-11-03T05:44:25.421Z,92096.41
2023-11-03T05:46:51.922Z,92097.41
2023-11-03T05:49:18.482Z,92108.38
2023-11-03T05:51:45.065Z,92113.19
2023-11-03T05:54:11.530Z,92116.59
2023-11-03T05:56:37.982Z,92118.28
2023-11-03T05:59:04.758Z,92123.97
2023-11-03T06:01:31.263Z,92127.75
2023-11-03T06:03:57.798Z,92139.06
2023-11-03T06:06:24.287Z,92126.97
2023-11-03T06:08:50.756Z,92134.84
2023-11-03T06:11:17.216Z,92136.44
2023-11-03T06:13:43.675Z,92140.94
2023-11-03T06:16:10.175Z,92145.22
2023-11-03T06:18:36.712Z,92167.69
2023-11-03T06:21:03.248Z,92169.69
2023-11-03T06:23:29.705Z,92157.22
2023-11-03T06:25:56.148Z,92165.72
2023-11-03T06:28:22.649Z,92169.81
2023-11-03T06:30:49.165Z,92174.28
2023-11-03T06:33:15.616Z,92179.31
2023-11-03T06:35:42.079Z,92188.81
2023-11-03T06:38:08.546Z,92198.28
2023-11-03T06:40:35.016Z,92194.63
2023-11-03T06:43:01.509Z,92212.00
2023-11-03T06:45:27.994Z,92209.22
2023-11-03T06:47:54.511Z,92219.53
2023-11-03T06:50:20.981Z,92223.78
2023-11-03T06:52:47.512Z,92226.16
2023-11-03T06:55:14.511Z,92225.97
2023-11-03T06:57:41.216Z,92235.81
2023-11-03T07:00:07.777Z,92232.38
2023-11-03T07:02:34.371Z,92233.53
2023-11-03T07:05:00.952Z,92235.16
2023-11-03T07:07:27.424Z,92240.22
2023-11-03T07:09:53.917Z,92234.16
2023-11-03T07:12:20.993Z,92242.47
2023-11-03T07:14:47.897Z,92247.91
2023-11-03T07:17:14.376Z,92249.94
2023-11-03T07:19:40.952Z,92251.53
2023-11-03T07:22:07.493Z,92264.66
2023-11-03T07:24:33.949Z,92265.28
2023-11-03T07:27:00.431Z,92274.13
2023-11-03T07:29:26.896Z,92274.72
2023-11-03T07:31:53.337Z,92268.44
2023-11-03T07:34:20.058Z,92275.25
2023-11-03T07:36:46.633Z,92267.56
2023-11-03T07:39:13.082Z,92273.38
2023-11-03T07:41:39.538Z,92268.53
2023-11-03T07:44:06.167Z,92273.13
2023-11-03T07:46:32.659Z,92273.50
2023-11-03T07:48:59.266Z,92284.19
2023-11-03T07:51:25.962Z,92291.81
2023-11-03T07:53:54.569Z,92286.16
2023-11-03T07:56:22.254Z,92284.91
2023-11-03T07:59:01.590Z,92283.91
2023-11-03T08:01:28.054Z,92296.25
2023-11-03T08:03:54.604Z,92294.63
2023-11-03T08:06:21.157Z,92304.75
2023-11-03T08:08:47.658Z,92302.94
2023-11-03T08:11:14.131Z,92308.56
2023-11-03T08:13:40.578Z,92312.81
2023-11-03T08:16:07.060Z,92310.16
2023-11-03T08:18:33.549Z,92305.88
2023-11-03T08:21:00.026Z,92310.84
2023-11-03T08:23:26.499Z,92305.53
2023-11-03T08:25:52.929Z,92309.94
2023-11-03T08:28:19.437Z,92308.88
2023-11-03T08:30:46.047Z,92307.06
2023-11-03T08:33:12.581Z,92300.78
2023-11-03T08:35:39.079Z,92308.34
2023-11-03T08:38:05.541Z,92305.44
2023-11-03T08:40:32.112Z,92301.69
2023-11-03T08:42:58.620Z,92308.81
2023-11-03T08:45:26.675Z,92308.47
2023-11-03T08:47:53.331Z,92303.41
2023-11-03T08:50:19.806Z,92303.19
2023-11-03T08:52:46.339Z,92313.47
2023-11-03T08:55:12.920Z,92311.25
2023-11-03T08:57:39.393Z,92306.97
2023-11-03T09:00:05.874Z,92308.66
2023-11-03T09:02:32.417Z,92315.00
2023-11-03T09:04:58.916Z,92312.53
2023-11-03T09:07:26.244Z,92313.75
2023-11-03T09:09:52.728Z,92318.81
2023-11-03T09:12:19.235Z,92325.00
2023-11-03T09:14:45.779Z,92326.59
2023-11-03T09:17:12.265Z,92334.94
2023-11-03T09:19:38.746Z,92335.28
2023-11-03T09:22:05.242Z,92337.41
2023-11-03T09:24:31.769Z,92336.31
2023-11-03T09:27:04.389Z,92336.53
2023-11-03T09:29:35.467Z,92338.13
2023-11-03T09:32:01.974Z,92334.63
2023-11-03T09:34:30.364Z,92331.75
2023-11-03T09:36:57.714Z,92331.28
2023-11-03T09:39:24.187Z,92326.13
2023-11-03T09:41:50.649Z,92335.53
2023-11-03T09:44:17.117Z,92331.28
2023-11-03T09:46:43.573Z,92334.25
2023-11-03T09:49:10.060Z,92331.56
2023-11-03T09:51:36.558Z,92328.13
2023-11-03T09:54:03.033Z,92332.28
2023-11-03T09:56:29.494Z,92332.47
2023-11-03T09:58:56.008Z,92333.16
2023-11-03T10:01:22.589Z,92323.75
2023-11-03T10:03:49.181Z,92332.44
2023-11-03T10:06:15.741Z,92332.09
2023-11-03T10:08:42.197Z,92339.06
2023-11-03T10:11:08.686Z,92332.59
2023-11-03T10:13:35.194Z,92327.06
2023-11-03T10:16:01.693Z,92324.63
2023-11-03T10:18:28.198Z,92330.44
2023-11-03T10:20:54.714Z,92334.97
2023-11-03T10:23:21.200Z,92329.56
2023-11-03T10:25:47.652Z,92324.41
2023-11-03T10:28:14.149Z,92317.13
2023-11-03T10:30:40.620Z,92319.63
2023-11-03T10:33:07.140Z,92319.63
2023-11-03T10:35:33.640Z,92318.34
2023-11-03T10:38:00.090Z,92315.19
2023-11-03T10:40:26.601Z,92305.25
2023-11-03T10:42:53.230Z,92307.59
2023-11-03T10:45:20.100Z,92298.94
2023-11-03T10:47:46.707Z,92289.59
2023-11-03T10:50:13.421Z,92293.66
2023-11-03T10:52:40.024Z,92298.50
2023-11-03T10:55:06.683Z,92296.94
2023-11-03T10:57:39.893Z,92286.97
2023-11-03T11:00:08.043Z,92280.00
2023-11-03T11:02:34.681Z,92288.16
2023-11-03T11:05:01.255Z,92287.47
2023-11-03T11:07:27.753Z,92281.84
2023-11-03T11:09:54.335Z,92279.44
2023-11-03T11:12:21.371Z,92283.31
2023-11-03T11:14:48.954Z,92279.66
2023-11-03T11:17:15.873Z,92283.41
2023-11-03T11:19:42.381Z,92280.91
2023-11-03T11:22:08.903Z,92278.06
2023-11-03T11:24:35.399Z,92278.66
2023-11-03T11:27:01.865Z,92280.03
2023-11-03T11:29:28.371Z,92285.78
2023-11-03T11:31:54.872Z,92287.41
2023-11-03T11:34:21.569Z,92288.59
2023-11-03T11:36:48.182Z,92285.25
2023-11-03T11:39:16.842Z,92288.22
2023-11-03T11:41:44.436Z,92287.19
2023-11-03T11:44:12.063Z,92290.50
2023-11-03T11:46:39.637Z,92298.53
2023-11-03T11:49:08.101Z,92296.69
2023-11-03T11:51:34.760Z,92291.44
2023-11-03T11:54:01.376Z,92286.16
2023-11-03T11:56:27.955Z,92292.56
2023-11-03T11:58:55.663Z,92289.94
2023-11-03T12:01:22.663Z,92295.59
2023-11-03T12:03:49.212Z,92306.50
2023-11-03T12:06:17.315Z,92309.00
2023-11-03T12:08:43.963Z,92308.91
2023-11-03T12:11:11.479Z,92307.63
2023-11-03T12:13:39.071Z,92315.00
2023-11-03T12:16:05.784Z,92306.38
2023-11-03T12:18:32.329Z,92313.81
2023-11-03T12:20:58.813Z,92308.44
2023-11-03T12:23:25.440Z,92305.25
2023-11-03T12:25:52.014Z,92306.97
2023-11-03T12:28:19.684Z,92306.59
2023-11-03T12:30:47.199Z,92305.91
2023-11-03T12:33:13.841Z,92310.63
2023-11-03T12:35:40.368Z,92309.94
2023-11-03T12:38:07.046Z,92300.63
2023-11-03T12:40:34.609Z,92305.31
2023-11-03T12:43:02.200Z,92306.44
2023-11-03T12:45:29.756Z,92306.31
2023-11-03T12:47:56.777Z,92302.31
2023-11-03T12:50:23.957Z,92306.19
2023-11-03T12:52:50.582Z,92301.22
2023-11-03T12:55:18.220Z,92300.91
2023-11-03T12:57:44.743Z,92298.25
2023-11-03T13:00:12.316Z,92292.06
2023-11-03T13:02:39.907Z,92291.47
2023-11-03T13:05:06.403Z,92295.59
2023-11-03T13:07:33.097Z,92297.88
2023-11-03T13:09:59.738Z,92301.66
2023-11-03T13:12:26.331Z,92300.28
2023-11-03T13:14:52.770Z,92304.75
2023-11-03T13:17:19.524Z,92301.53
2023-11-03T13:19:47.072Z,92301.72
2023-11-03T13:22:14.683Z,92315.81
2023-11-03T13:24:41.264Z,92316.69
2023-11-03T13:27:08.848Z,92314.88
2023-11-03T13:29:35.289Z,92312.34
2023-11-03T13:32:01.759Z,92309.56
2023-11-03T13:34:28.322Z,92316.38
2023-11-03T13:36:54.814Z,92318.31
2023-11-03T13:39:21.268Z,92308.44
2023-11-03T13:41:47.724Z,92309.47
2023-11-03T13:44:14.174Z,92308.88
2023-11-03T13:46:40.825Z,92310.50
2023-11-03T13:49:07.478Z,92312.13
2023-11-03T13:51:34.004Z,92308.44
2023-11-03T13:54:00.478Z,92307.78
2023-11-03T13:56:27.077Z,92308.81
2023-11-03T13:58:53.586Z,92303.41
2023-11-03T14:01:20.086Z,92306.47
2023-11-03T14:03:46.567Z,92314.69
2023-11-03T14:06:13.062Z,92314.53
2023-11-03T14:08:39.523Z,92313.59
2023-11-03T14:11:06.001Z,92319.50
2023-11-03T14:13:32.473Z,92310.78
2023-11-03T14:15:58.998Z,92314.09
2023-11-03T14:18:25.488Z,92327.50
2023-11-03T14:20:52.008Z,92330.84
2023-11-03T14:23:18.442Z,92329.81
2023-11-03T14:25:44.970Z,92334.06
2023-11-03T14:28:11.474Z,92340.50
2023-11-03T14:30:37.966Z,92338.25
2023-11-03T14:33:04.495Z,92338.47
2023-11-03T14:35:30.992Z,92344.75
2023-11-03T14:37:57.448Z,92352.88
2023-11-03T14:40:23.964Z,92350.88
2023-11-03T14:42:50.478Z,92350.53
2023-11-03T14:45:17.113Z,92353.22
2023-11-03T14:47:43.648Z,92349.19
2023-11-03T14:50:10.161Z,92358.56
2023-11-03T14:52:36.698Z,92353.50
2023-11-03T14:55:03.186Z,92360.38
2023-11-03T14:57:29.655Z,92364.63
2023-11-03T14:59:56.132Z,92370.91
2023-11-03T15:02:22.611Z,92367.94
2023-11-03T15:04:49.205Z,92366.31
2023-11-03T15:07:15.785Z,92370.78
2023-11-03T15:09:42.274Z,92371.38
2023-11-03T15:12:08.739Z,92378.47
2023-11-03T15:14:35.221Z,92380.28
2023-11-03T15:17:01.747Z,92390.81
2023-11-03T15:19:28.277Z,92388.38
2023-11-03T15:21:54.767Z,92388.19
2023-11-03T15:24:21.236Z,92392.63
2023-11-03T15:26:47.691Z,92396.09
2023-11-03T15:29:14.144Z,92386.94
2023-11-03T15:31:40.643Z,92384.94
2023-11-03T15:34:07.152Z,92390.66
2023-11-03T15:36:33.625Z,92396.59
2023-11-03T15:39:00.081Z,92395.97
2023-11-03T15:41:29.091Z,92406.16
2023-11-03T15:43:56.018Z,92400.28
2023-11-03T15:46:22.540Z,92404.78
2023-11-03T15:48:49.065Z,92418.41
2023-11-03T15:51:15.606Z,92422.66
2023-11-03T15:53:42.042Z,92425.75
2023-11-03T15:56:08.545Z,92427.63
2023-11-03T15:58:35.061Z,92426.72
2023-11-03T16:01:01.591Z,92431.56
2023-11-03T16:03:28.173Z,92434.84
2023-11-03T16:05:54.817Z,92439.28
2023-11-03T16:08:21.297Z,92433.84
2023-11-03T16:10:47.914Z,92446.19
2023-11-03T16:13:14.863Z,92444.97
2023-11-03T16:15:41.661Z,92443.56
2023-11-03T16:18:08.193Z,92443.97
2023-11-03T16:20:34.828Z,92448.63
2023-11-03T16:23:01.320Z,92453.28
2023-11-03T16:25:27.849Z,92461.16
2023-11-03T16:27:54.337Z,92472.50
2023-11-03T16:30:22.285Z,92473.53
2023-11-03T16:32:49.209Z,92475.75
2023-11-03T16:35:15.778Z,92475.56
2023-11-03T16:37:42.331Z,92473.72
2023-11-03T16:40:08.915Z,92483.66
2023-11-03T16:42:35.400Z,92478.22
2023-11-03T16:45:01.888Z,92485.09
2023-11-03T16:47:28.373Z,92492.16
2023-11-03T16:49:54.912Z,92488.75
2023-11-03T16:52:21.473Z,92487.75
2023-11-03T16:54:47.972Z,92500.69
2023-11-03T16:57:14.433Z,92489.75
2023-11-03T16:59:40.888Z,92493.03
2023-11-03T17:02:07.879Z,92493.22
2023-11-03T17:04:34.413Z,92500.53
2023-11-03T17:07:00.908Z,92502.56
2023-11-03T17:09:27.398Z,92504.19
2023-11-03T17:11:53.869Z,92506.00
2023-11-03T17:14:20.314Z,92505.44
2023-11-03T17:16:46.906Z,92513.91
2023-11-03T17:19:13.413Z,92508.06
2023-11-03T17:21:39.893Z,92501.81
2023-11-03T17:24:06.370Z,92504.84
2023-11-03T17:26:32.886Z,92506.28
2023-11-03T17:28:59.360Z,92504.47
2023-11-03T17:31:25.854Z,92503.28
2023-11-03T17:33:52.329Z,92500.03
2023-11-03T17:36:18.798Z,92506.09
2023-11-03T17:38:45.253Z,92506.09
2023-11-03T17:41:11.753Z,92508.31
2023-11-03T17:43:38.270Z,92493.97
2023-11-03T17:46:04.842Z,92506.28
2023-11-03T17:48:31.315Z,92506.91
2023-11-03T17:50:57.779Z,92501.66
2023-11-03T17:53:24.229Z,92511.97
2023-11-03T17:55:50.797Z,92508.13
2023-11-03T17:58:17.408Z,92513.78
2023-11-03T18:00:43.902Z,92519.44
2023-11-03T18:03:10.406Z,92510.56
2023-11-03T18:05:36.903Z,92507.13
2023-11-03T18:08:03.330Z,92523.50
2023-11-03T18:10:29.946Z,92534.63
2023-11-03T18:12:56.422Z,92543.50
2023-11-03T18:15:22.913Z,92542.28
2023-11-03T18:17:49.416Z,92548.94
2023-11-03T18:20:15.904Z,92555.41
2023-11-03T18:22:42.684Z,92549.75
2023-11-03T18:25:09.375Z,92555.22
2023-11-03T18:27:35.855Z,92566.34
2023-11-03T18:30:02.324Z,92563.91
2023-11-03T18:32:28.832Z,92574.84
2023-11-03T18:34:55.436Z,92562.50
2023-11-03T18:37:21.994Z,92565.34
2023-11-03T18:39:48.489Z,92557.06
2023-11-03T18:42:14.926Z,92563.13
2023-11-03T18:44:41.365Z,92569.56
2023-11-03T18:47:07.823Z,92561.28
2023-11-03T18:52:03.677Z,92568.38
2023-11-03T18:58:14.857Z,92574.81
2023-11-03T19:04:22.072Z,92583.69
2023-11-03T19:06:03.376Z,92579.47
2023-11-03T19:07:48.406Z,92588.72
2023-11-03T19:10:14.984Z,92595.22
2023-11-03T19:12:41.493Z,92592.97
2023-11-03T19:15:08.095Z,92594.78
2023-11-03T19:17:36.837Z,92594.22
2023-11-03T19:20:04.504Z,92596.84
2023-11-03T19:22:30.949Z,92601.03
2023-11-03T19:24:57.461Z,92593.16
2023-11-03T19:27:23.919Z,92598.19
2023-11-03T19:29:50.433Z,92597.38
2023-11-03T19:32:16.911Z,92598.41
2023-11-03T19:34:43.446Z,92593.56
2023-11-03T19:37:09.892Z,92595.56
2023-11-03T19:39:36.378Z,92600.00
2023-11-03T19:42:02.919Z,92604.06
2023-11-03T19:44:29.355Z,92601.44
2023-11-03T19:46:55.838Z,92599.63
2023-11-03T19:49:22.359Z,92597.38
2023-11-03T19:51:48.835Z,92605.25
2023-11-03T19:54:15.313Z,92608.25
2023-11-03T19:56:41.887Z,92616.13
2023-11-03T19:59:08.424Z,92625.81
2023-11-03T20:01:34.910Z,92622.59
2023-11-03T20:04:01.412Z,92617.13
2023-11-03T20:06:27.885Z,92624.22
2023-11-03T20:08:54.338Z,92637.16
2023-11-03T20:11:22.168Z,92641.19
2023-11-03T20:13:48.761Z,92642.63
2023-11-03T20:16:15.216Z,92628.88
2023-11-03T20:18:41.810Z,92639.78
2023-11-03T20:21:09.650Z,92646.66
2023-11-03T20:23:36.325Z,92644.44
2023-11-03T20:26:02.760Z,92650.50
2023-11-03T20:28:29.219Z,92654.75
2023-11-03T20:30:55.664Z,92664.44
2023-11-03T20:33:22.190Z,92662.03
2023-11-03T20:35:48.710Z,92661.84
2023-11-03T20:38:15.187Z,92657.63
2023-11-03T20:40:41.696Z,92666.28
2023-11-03T20:43:08.125Z,92666.28
2023-11-03T20:45:34.619Z,92662.66
2023-11-03T20:48:01.185Z,92663.28
2023-11-03T20:50:27.719Z,92661.66
2023-11-03T20:52:54.157Z,92668.31
2023-11-03T20:55:20.611Z,92664.69
2023-11-03T20:57:47.207Z,92672.19
2023-11-03T21:00:13.859Z,92674.19
2023-11-03T21:02:40.411Z,92661.66
2023-11-03T21:05:07.009Z,92665.50
2023-11-03T21:07:33.495Z,92661.47
2023-11-03T21:09:59.952Z,92662.06
2023-11-03T21:12:26.416Z,92650.56
2023-11-03T21:14:52.890Z,92659.84
2023-11-03T21:17:19.362Z,92648.34
2023-11-03T21:19:45.870Z,92655.19
2023-11-03T21:22:12.376Z,92658.25
2023-11-03T21:24:38.891Z,92658.63
2023-11-03T21:27:05.387Z,92656.41
2023-11-03T21:29:31.854Z,92660.84
2023-11-03T21:31:58.321Z,92664.28
2023-11-03T21:34:24.947Z,92655.22
2023-11-03T21:36:51.514Z,92662.66
2023-11-03T21:39:18.392Z,92661.44
2023-11-03T21:41:44.958Z,92664.69
2023-11-03T21:44:11.427Z,92666.72
2023-11-03T21:46:37.875Z,92659.84
2023-11-03T21:49:04.422Z,92651.97
2023-11-03T21:51:30.993Z,92664.09
2023-11-03T21:53:57.459Z,92662.84
2023-11-03T21:56:23.992Z,92667.53
2023-11-03T21:58:50.439Z,92667.28
2023-11-03T22:01:16.956Z,92669.91
2023-11-03T22:03:43.460Z,92669.34
2023-11-03T22:06:09.978Z,92663.28
2023-11-03T22:08:36.474Z,92665.28
2023-11-03T22:11:02.954Z,92679.63
2023-11-03T22:13:29.420Z,92675.19
2023-11-03T22:15:55.874Z,92681.03
2023-11-03T22:18:22.558Z,92671.34
2023-11-03T22:20:51.170Z,92681.44
2023-11-03T22:23:18.328Z,92679.41
2023-11-03T22:25:44.791Z,92671.53
2023-11-03T22:28:11.249Z,92682.84
2023-11-03T22:30:37.741Z,92684.28
2023-11-03T22:33:04.279Z,92681.66
2023-11-03T22:35:30.828Z,92688.75
2023-11-03T22:37:57.309Z,92681.47
2023-11-03T22:40:23.760Z,92695.00
2023-11-03T22:42:50.258Z,92693.97
2023-11-03T22:45:16.730Z,92686.53
2023-11-03T22:47:43.356Z,92694.00
2023-11-03T22:50:09.899Z,92696.84
2023-11-03T22:52:36.360Z,92708.38
2023-11-03T22:55:02.909Z,92714.22
2023-11-03T22:57:29.433Z,92717.28
2023-11-03T22:59:55.917Z,92713.41
2023-11-03T23:02:22.427Z,92713.84
2023-11-03T23:04:48.910Z,92721.28
2023-11-03T23:07:15.370Z,92722.31
2023-11-03T23:09:41.859Z,92724.34
2023-11-03T23:12:08.418Z,92721.09
2023-11-03T23:14:34.856Z,92720.91
2023-11-03T23:17:01.292Z,92727.56
2023-11-03T23:19:27.899Z,92715.03
2023-11-03T23:21:54.411Z,92710.78
2023-11-03T23:24:20.935Z,92716.63
2023-11-03T23:26:47.407Z,92717.84
2023-11-03T23:29:13.863Z,92713.59
2023-11-03T23:31:40.324Z,92705.91
2023-11-03T23:34:07.040Z,92715.81
2023-11-03T23:36:33.776Z,92710.78
2023-11-03T23:39:00.277Z,92707.72
2023-11-03T23:41:26.773Z,92704.06
2023-11-03T23:43:53.233Z,92709.94
2023-11-03T23:46:19.677Z,92710.13
2023-11-03T23:48:46.176Z,92703.06
2023-11-03T23:51:12.809Z,92707.50
2023-11-03T23:53:39.325Z,92703.47
2023-11-03T23:56:05.799Z,92700.41
2023-11-03T23:58:32.310Z,92701.03
